sensor_id;sensor_type;location;lat;lon;timestamp;temperature;humidity
13091;DHT22;6611;52.604;13.438;2023-08-12T00:03:34;16.81;81.94
13091;DHT22;6611;52.604;13.438;2023-08-12T00:08:37;16.75;82.04
13091;DHT22;6611;52.604;13.438;2023-08-12T00:13:39;16.78;81.88
13091;DHT22;6611;52.604;13.438;2023-08-12T00:18:40;16.73;81.89
13091;DHT22;6611;52.604;13.438;2023-08-12T00:23:44;16.68;82.11
13091;DHT22;6611;52.604;13.438;2023-08-12T00:28:48;16.68;82.13
13091;DHT22;6611;52.604;13.438;2023-08-12T00:33:50;16.66;82.08
13091;DHT22;6611;52.604;13.438;2023-08-12T00:38:53;16.64;82.23
13091;DHT22;6611;52.604;13.438;2023-08-12T00:43:55;16.66;82.26
13091;DHT22;6611;52.604;13.438;2023-08-12T00:48:57;16.60;82.46
13091;DHT22;6611;52.604;13.438;2023-08-12T00:54:01;16.61;82.60
13091;DHT22;6611;52.604;13.438;2023-08-12T00:59:04;16.60;82.68
13091;DHT22;6611;52.604;13.438;2023-08-12T01:04:06;16.59;82.91
13091;DHT22;6611;52.604;13.438;2023-08-12T01:09:10;16.55;82.88
13091;DHT22;6611;52.604;13.438;2023-08-12T01:14:15;16.50;83.01
13091;DHT22;6611;52.604;13.438;2023-08-12T01:19:22;16.46;83.05
13091;DHT22;6611;52.604;13.438;2023-08-12T01:24:35;16.42;83.26
13091;DHT22;6611;52.604;13.438;2023-08-12T01:29:41;16.43;83.10
13091;DHT22;6611;52.604;13.438;2023-08-12T01:34:46;16.33;83.19
13091;DHT22;6611;52.604;13.438;2023-08-12T01:39:52;16.33;83.15
13091;DHT22;6611;52.604;13.438;2023-08-12T01:44:55;16.29;83.52
13091;DHT22;6611;52.604;13.438;2023-08-12T01:49:57;16.25;83.63
13091;DHT22;6611;52.604;13.438;2023-08-12T01:55:00;16.18;83.67
13091;DHT22;6611;52.604;13.438;2023-08-12T02:00:02;16.18;83.67
13091;DHT22;6611;52.604;13.438;2023-08-12T02:05:05;16.09;83.61
13091;DHT22;6611;52.604;13.438;2023-08-12T02:10:08;16.09;83.78
13091;DHT22;6611;52.604;13.438;2023-08-12T02:15:10;16.05;84.05
13091;DHT22;6611;52.604;13.438;2023-08-12T02:20:12;16.12;83.95
13091;DHT22;6611;52.604;13.438;2023-08-12T02:25:15;16.12;83.97
13091;DHT22;6611;52.604;13.438;2023-08-12T02:30:16;16.11;84.11
13091;DHT22;6611;52.604;13.438;2023-08-12T02:35:18;16.14;84.08
13091;DHT22;6611;52.604;13.438;2023-08-12T02:40:21;16.16;84.15
13091;DHT22;6611;52.604;13.438;2023-08-12T02:45:23;16.18;84.09
13091;DHT22;6611;52.604;13.438;2023-08-12T02:50:24;16.25;83.95
13091;DHT22;6611;52.604;13.438;2023-08-12T02:55:27;16.26;84.19
13091;DHT22;6611;52.604;13.438;2023-08-12T03:00:29;16.25;83.97
13091;DHT22;6611;52.604;13.438;2023-08-12T03:05:32;16.26;83.90
13091;DHT22;6611;52.604;13.438;2023-08-12T03:10:36;16.25;83.77
13091;DHT22;6611;52.604;13.438;2023-08-12T03:15:38;16.25;83.64
13091;DHT22;6611;52.604;13.438;2023-08-12T03:20:40;16.18;83.79
13091;DHT22;6611;52.604;13.438;2023-08-12T03:25:43;16.12;83.85
13091;DHT22;6611;52.604;13.438;2023-08-12T03:30:50;16.05;83.96
13091;DHT22;6611;52.604;13.438;2023-08-12T03:35:52;16.06;83.70
13091;DHT22;6611;52.604;13.438;2023-08-12T03:40:55;16.02;83.89
13091;DHT22;6611;52.604;13.438;2023-08-12T03:45:56;16.05;83.83
13091;DHT22;6611;52.604;13.438;2023-08-12T03:50:58;16.05;83.92
13091;DHT22;6611;52.604;13.438;2023-08-12T03:56:01;16.02;83.91
13091;DHT22;6611;52.604;13.438;2023-08-12T04:01:03;16.04;83.83
13091;DHT22;6611;52.604;13.438;2023-08-12T04:06:04;16.05;83.92
13091;DHT22;6611;52.604;13.438;2023-08-12T04:11:07;16.05;83.82
13091;DHT22;6611;52.604;13.438;2023-08-12T04:16:09;16.08;83.74
13091;DHT22;6611;52.604;13.438;2023-08-12T04:21:11;16.15;83.58
13091;DHT22;6611;52.604;13.438;2023-08-12T04:26:14;16.15;83.62
13091;DHT22;6611;52.604;13.438;2023-08-12T04:31:15;16.21;83.53
13091;DHT22;6611;52.604;13.438;2023-08-12T04:36:17;16.28;83.39
13091;DHT22;6611;52.604;13.438;2023-08-12T04:41:20;16.33;83.43
13091;DHT22;6611;52.604;13.438;2023-08-12T04:46:24;16.50;83.01
13091;DHT22;6611;52.604;13.438;2023-08-12T04:51:25;16.68;82.18
13091;DHT22;6611;52.604;13.438;2023-08-12T04:56:28;16.91;81.88
13091;DHT22;6611;52.604;13.438;2023-08-12T05:01:30;17.12;81.27
13091;DHT22;6611;52.604;13.438;2023-08-12T05:06:32;17.53;80.99
13091;DHT22;6611;52.604;13.438;2023-08-12T05:11:35;18.29;78.54
13091;DHT22;6611;52.604;13.438;2023-08-12T05:16:36;18.94;74.63
13091;DHT22;6611;52.604;13.438;2023-08-12T05:21:38;19.34;72.71
13091;DHT22;6611;52.604;13.438;2023-08-12T05:26:41;19.84;70.57
13091;DHT22;6611;52.604;13.438;2023-08-12T05:31:43;20.09;68.86
13091;DHT22;6611;52.604;13.438;2023-08-12T05:36:44;20.32;69.08
13091;DHT22;6611;52.604;13.438;2023-08-12T05:41:47;20.39;67.93
13091;DHT22;6611;52.604;13.438;2023-08-12T05:46:49;20.41;68.38
13091;DHT22;6611;52.604;13.438;2023-08-12T05:51:51;20.37;68.51
13091;DHT22;6611;52.604;13.438;2023-08-12T05:56:54;20.33;69.25
13091;DHT22;6611;52.604;13.438;2023-08-12T06:01:56;20.34;68.24
13091;DHT22;6611;52.604;13.438;2023-08-12T06:06:57;20.34;68.99
13091;DHT22;6611;52.604;13.438;2023-08-12T06:12:00;20.45;69.32
13091;DHT22;6611;52.604;13.438;2023-08-12T06:17:02;20.67;69.93
13091;DHT22;6611;52.604;13.438;2023-08-12T06:22:04;21.03;68.34
13091;DHT22;6611;52.604;13.438;2023-08-12T06:27:07;21.29;67.36
13091;DHT22;6611;52.604;13.438;2023-08-12T06:32:08;21.44;67.68
13091;DHT22;6611;52.604;13.438;2023-08-12T06:37:13;21.78;67.21
13091;DHT22;6611;52.604;13.438;2023-08-12T06:42:16;22.05;64.86
13091;DHT22;6611;52.604;13.438;2023-08-12T06:47:17;22.60;63.88
13091;DHT22;6611;52.604;13.438;2023-08-12T06:52:19;22.71;63.47
13091;DHT22;6611;52.604;13.438;2023-08-12T06:57:22;22.94;63.08
13091;DHT22;6611;52.604;13.438;2023-08-12T07:02:23;23.16;60.77
13091;DHT22;6611;52.604;13.438;2023-08-12T07:07:25;23.33;61.34
13091;DHT22;6611;52.604;13.438;2023-08-12T07:12:28;23.31;62.41
13091;DHT22;6611;52.604;13.438;2023-08-12T07:17:30;23.26;61.82
13091;DHT22;6611;52.604;13.438;2023-08-12T07:22:31;23.58;61.14
13091;DHT22;6611;52.604;13.438;2023-08-12T07:27:34;23.71;60.50
13091;DHT22;6611;52.604;13.438;2023-08-12T07:32:36;23.57;61.60
13091;DHT22;6611;52.604;13.438;2023-08-12T07:37:39;24.03;62.69
13091;DHT22;6611;52.604;13.438;2023-08-12T07:42:42;24.55;60.81
13091;DHT22;6611;52.604;13.438;2023-08-12T07:47:44;24.85;59.56
13091;DHT22;6611;52.604;13.438;2023-08-12T07:52:45;24.78;58.39
13091;DHT22;6611;52.604;13.438;2023-08-12T07:57:48;24.44;58.94
13091;DHT22;6611;52.604;13.438;2023-08-12T08:02:50;24.38;60.80
13091;DHT22;6611;52.604;13.438;2023-08-12T08:07:52;24.48;61.10
13091;DHT22;6611;52.604;13.438;2023-08-12T08:12:55;24.31;59.97
13091;DHT22;6611;52.604;13.438;2023-08-12T08:17:56;24.08;61.08
13091;DHT22;6611;52.604;13.438;2023-08-12T08:22:58;23.82;61.07
13091;DHT22;6611;52.604;13.438;2023-08-12T08:28:01;23.68;62.58
13091;DHT22;6611;52.604;13.438;2023-08-12T08:33:03;23.55;63.63
13091;DHT22;6611;52.604;13.438;2023-08-12T08:38:05;23.30;63.73
13091;DHT22;6611;52.604;13.438;2023-08-12T08:43:09;23.16;63.93
13091;DHT22;6611;52.604;13.438;2023-08-12T08:48:12;23.06;64.99
13091;DHT22;6611;52.604;13.438;2023-08-12T08:53:14;22.94;66.42
13091;DHT22;6611;52.604;13.438;2023-08-12T08:58:18;22.92;66.62
13091;DHT22;6611;52.604;13.438;2023-08-12T09:03:20;22.94;68.09
13091;DHT22;6611;52.604;13.438;2023-08-12T09:08:22;22.85;68.35
13091;DHT22;6611;52.604;13.438;2023-08-12T09:13:26;22.87;68.64
13091;DHT22;6611;52.604;13.438;2023-08-12T09:18:29;22.85;68.21
13091;DHT22;6611;52.604;13.438;2023-08-12T09:23:34;23.00;67.42
13091;DHT22;6611;52.604;13.438;2023-08-12T09:28:37;23.10;67.42
13091;DHT22;6611;52.604;13.438;2023-08-12T09:33:39;23.34;67.04
13091;DHT22;6611;52.604;13.438;2023-08-12T09:38:41;23.79;66.95
13091;DHT22;6611;52.604;13.438;2023-08-12T09:43:44;24.23;65.39
13091;DHT22;6611;52.604;13.438;2023-08-12T09:48:46;24.38;63.07
13091;DHT22;6611;52.604;13.438;2023-08-12T09:53:48;24.27;62.98
13091;DHT22;6611;52.604;13.438;2023-08-12T09:58:52;24.20;63.67
13091;DHT22;6611;52.604;13.438;2023-08-12T10:03:54;24.30;63.63
13091;DHT22;6611;52.604;13.438;2023-08-12T10:08:56;24.37;63.22
13091;DHT22;6611;52.604;13.438;2023-08-12T10:14:00;24.51;63.53
13091;DHT22;6611;52.604;13.438;2023-08-12T10:19:04;24.43;63.23
13091;DHT22;6611;52.604;13.438;2023-08-12T10:24:06;24.43;65.01
13091;DHT22;6611;52.604;13.438;2023-08-12T10:29:11;24.41;63.96
13091;DHT22;6611;52.604;13.438;2023-08-12T10:34:18;24.46;63.96
13091;DHT22;6611;52.604;13.438;2023-08-12T10:39:24;24.64;63.18
13091;DHT22;6611;52.604;13.438;2023-08-12T10:44:38;24.75;63.50
13091;DHT22;6611;52.604;13.438;2023-08-12T10:49:43;24.93;63.00
13091;DHT22;6611;52.604;13.438;2023-08-12T10:54:45;25.08;63.07
13091;DHT22;6611;52.604;13.438;2023-08-12T10:59:57;25.28;63.06
13091;DHT22;6611;52.604;13.438;2023-08-12T11:05:01;25.41;63.24
13091;DHT22;6611;52.604;13.438;2023-08-12T11:10:04;25.33;64.22
13091;DHT22;6611;52.604;13.438;2023-08-12T11:15:10;25.38;63.68
13091;DHT22;6611;52.604;13.438;2023-08-12T11:20:12;25.51;63.23
13091;DHT22;6611;52.604;13.438;2023-08-12T11:25:14;25.41;64.47
13091;DHT22;6611;52.604;13.438;2023-08-12T11:30:20;25.55;64.68
13091;DHT22;6611;52.604;13.438;2023-08-12T11:35:24;25.68;64.63
13091;DHT22;6611;52.604;13.438;2023-08-12T11:40:27;25.79;64.34
13091;DHT22;6611;52.604;13.438;2023-08-12T11:45:30;25.81;64.44
13091;DHT22;6611;52.604;13.438;2023-08-12T11:50:32;25.86;65.66
13091;DHT22;6611;52.604;13.438;2023-08-12T11:55:34;25.62;66.25
13091;DHT22;6611;52.604;13.438;2023-08-12T12:00:37;25.19;65.03
13091;DHT22;6611;52.604;13.438;2023-08-12T12:05:39;25.03;64.72
13091;DHT22;6611;52.604;13.438;2023-08-12T12:10:41;24.96;64.54
13091;DHT22;6611;52.604;13.438;2023-08-12T12:15:44;24.96;63.88
13091;DHT22;6611;52.604;13.438;2023-08-12T12:20:55;25.17;64.21
13091;DHT22;6611;52.604;13.438;2023-08-12T12:25:58;25.34;65.38
13091;DHT22;6611;52.604;13.438;2023-08-12T12:31:02;25.35;64.46
13091;DHT22;6611;52.604;13.438;2023-08-12T12:36:04;25.16;64.86
13091;DHT22;6611;52.604;13.438;2023-08-12T12:41:05;24.74;65.43
13091;DHT22;6611;52.604;13.438;2023-08-12T12:46:08;24.63;65.92
13091;DHT22;6611;52.604;13.438;2023-08-12T12:51:10;24.57;67.35
13091;DHT22;6611;52.604;13.438;2023-08-12T12:56:12;24.68;67.05
13091;DHT22;6611;52.604;13.438;2023-08-12T13:01:15;24.88;66.20
13091;DHT22;6611;52.604;13.438;2023-08-12T13:06:17;25.12;65.17
13091;DHT22;6611;52.604;13.438;2023-08-12T13:11:18;25.44;64.66
13091;DHT22;6611;52.604;13.438;2023-08-12T13:16:21;25.61;62.80
13091;DHT22;6611;52.604;13.438;2023-08-12T13:21:23;25.81;62.29
13091;DHT22;6611;52.604;13.438;2023-08-12T13:26:24;25.95;63.03
13091;DHT22;6611;52.604;13.438;2023-08-12T13:31:27;26.02;62.76
13091;DHT22;6611;52.604;13.438;2023-08-12T13:36:29;26.31;63.54
13091;DHT22;6611;52.604;13.438;2023-08-12T13:41:31;26.44;61.94
13091;DHT22;6611;52.604;13.438;2023-08-12T13:46:34;26.43;61.96
13091;DHT22;6611;52.604;13.438;2023-08-12T13:51:36;26.41;62.72
13091;DHT22;6611;52.604;13.438;2023-08-12T13:56:37;26.31;61.40
13091;DHT22;6611;52.604;13.438;2023-08-12T14:01:40;26.29;62.03
13091;DHT22;6611;52.604;13.438;2023-08-12T14:06:42;26.47;63.52
13091;DHT22;6611;52.604;13.438;2023-08-12T14:11:44;26.51;60.97
13091;DHT22;6611;52.604;13.438;2023-08-12T14:16:47;26.48;61.32
13091;DHT22;6611;52.604;13.438;2023-08-12T14:21:49;26.34;60.52
13091;DHT22;6611;52.604;13.438;2023-08-12T14:26:51;26.54;59.46
13091;DHT22;6611;52.604;13.438;2023-08-12T14:31:54;26.57;59.19
13091;DHT22;6611;52.604;13.438;2023-08-12T14:36:55;26.57;59.10
13091;DHT22;6611;52.604;13.438;2023-08-12T14:41:57;26.37;59.62
13091;DHT22;6611;52.604;13.438;2023-08-12T14:47:00;26.23;60.80
13091;DHT22;6611;52.604;13.438;2023-08-12T14:52:02;26.27;60.71
13091;DHT22;6611;52.604;13.438;2023-08-12T14:57:04;26.40;61.15
13091;DHT22;6611;52.604;13.438;2023-08-12T15:02:07;26.48;59.80
13091;DHT22;6611;52.604;13.438;2023-08-12T15:07:09;26.72;59.41
13091;DHT22;6611;52.604;13.438;2023-08-12T15:12:11;26.83;59.46
13091;DHT22;6611;52.604;13.438;2023-08-12T15:17:14;26.88;58.70
13091;DHT22;6611;52.604;13.438;2023-08-12T15:22:15;26.74;59.12
13091;DHT22;6611;52.604;13.438;2023-08-12T15:27:17;26.54;59.86
13091;DHT22;6611;52.604;13.438;2023-08-12T15:32:20;26.29;60.94
13091;DHT22;6611;52.604;13.438;2023-08-12T15:37:22;26.26;60.88
13091;DHT22;6611;52.604;13.438;2023-08-12T15:42:24;26.36;59.30
13091;DHT22;6611;52.604;13.438;2023-08-12T15:47:27;26.44;60.48
13091;DHT22;6611;52.604;13.438;2023-08-12T15:52:28;26.54;60.14
13091;DHT22;6611;52.604;13.438;2023-08-12T15:57:33;26.58;59.92
13091;DHT22;6611;52.604;13.438;2023-08-12T16:02:36;26.71;59.93
13091;DHT22;6611;52.604;13.438;2023-08-12T16:07:37;26.86;58.53
13091;DHT22;6611;52.604;13.438;2023-08-12T16:12:39;26.88;59.40
13091;DHT22;6611;52.604;13.438;2023-08-12T16:17:42;26.79;59.12
13091;DHT22;6611;52.604;13.438;2023-08-12T16:22:44;26.72;59.71
13091;DHT22;6611;52.604;13.438;2023-08-12T16:27:46;26.58;61.74
13091;DHT22;6611;52.604;13.438;2023-08-12T16:32:49;26.37;62.91
13091;DHT22;6611;52.604;13.438;2023-08-12T16:37:50;26.12;65.23
13091;DHT22;6611;52.604;13.438;2023-08-12T16:42:52;25.96;65.95
13091;DHT22;6611;52.604;13.438;2023-08-12T16:47:55;25.85;65.97
13091;DHT22;6611;52.604;13.438;2023-08-12T16:52:57;25.84;65.77
13091;DHT22;6611;52.604;13.438;2023-08-12T16:57:59;25.82;64.84
13091;DHT22;6611;52.604;13.438;2023-08-12T17:03:02;25.78;65.13
13091;DHT22;6611;52.604;13.438;2023-08-12T17:08:04;25.78;64.15
13091;DHT22;6611;52.604;13.438;2023-08-12T17:13:06;25.75;64.40
13091;DHT22;6611;52.604;13.438;2023-08-12T17:18:09;25.61;65.93
13091;DHT22;6611;52.604;13.438;2023-08-12T17:23:10;25.41;67.27
13091;DHT22;6611;52.604;13.438;2023-08-12T17:28:12;25.27;67.00
13091;DHT22;6611;52.604;13.438;2023-08-12T17:33:15;25.22;66.12
13091;DHT22;6611;52.604;13.438;2023-08-12T17:38:17;25.34;65.75
13091;DHT22;6611;52.604;13.438;2023-08-12T17:43:18;25.31;65.40
13091;DHT22;6611;52.604;13.438;2023-08-12T17:48:21;25.24;65.12
13091;DHT22;6611;52.604;13.438;2023-08-12T17:53:23;25.23;65.31
13091;DHT22;6611;52.604;13.438;2023-08-12T17:58:25;25.09;65.70
13091;DHT22;6611;52.604;13.438;2023-08-12T18:03:28;25.06;66.55
13091;DHT22;6611;52.604;13.438;2023-08-12T18:08:29;24.93;66.83
13091;DHT22;6611;52.604;13.438;2023-08-12T18:13:31;24.83;68.41
13091;DHT22;6611;52.604;13.438;2023-08-12T18:18:34;24.61;68.86
13091;DHT22;6611;52.604;13.438;2023-08-12T18:23:36;24.44;69.92
13091;DHT22;6611;52.604;13.438;2023-08-12T18:28:37;24.27;70.75
13091;DHT22;6611;52.604;13.438;2023-08-12T18:33:40;24.20;72.43
13091;DHT22;6611;52.604;13.438;2023-08-12T18:38:42;24.08;72.32
13091;DHT22;6611;52.604;13.438;2023-08-12T18:43:45;23.98;71.52
13091;DHT22;6611;52.604;13.438;2023-08-12T18:48:48;24.17;69.99
13091;DHT22;6611;52.604;13.438;2023-08-12T18:53:50;24.16;73.08
13091;DHT22;6611;52.604;13.438;2023-08-12T18:58:52;23.40;77.79
13091;DHT22;6611;52.604;13.438;2023-08-12T19:03:55;22.82;80.17
13091;DHT22;6611;52.604;13.438;2023-08-12T19:08:56;22.60;80.59
13091;DHT22;6611;52.604;13.438;2023-08-12T19:13:58;22.39;81.18
13091;DHT22;6611;52.604;13.438;2023-08-12T19:19:02;22.27;82.05
13091;DHT22;6611;52.604;13.438;2023-08-12T19:24:05;22.14;82.19
13091;DHT22;6611;52.604;13.438;2023-08-12T19:29:06;22.02;82.67
13091;DHT22;6611;52.604;13.438;2023-08-12T19:34:10;21.96;83.41
13091;DHT22;6611;52.604;13.438;2023-08-12T19:39:11;21.91;83.74
13091;DHT22;6611;52.604;13.438;2023-08-12T19:44:13;21.81;84.82
13091;DHT22;6611;52.604;13.438;2023-08-12T19:49:16;21.79;84.31
13091;DHT22;6611;52.604;13.438;2023-08-12T19:54:18;21.69;85.83
13091;DHT22;6611;52.604;13.438;2023-08-12T19:59:19;21.69;85.72
13091;DHT22;6611;52.604;13.438;2023-08-12T20:04:22;21.65;86.29
13091;DHT22;6611;52.604;13.438;2023-08-12T20:09:24;21.59;86.62
13091;DHT22;6611;52.604;13.438;2023-08-12T20:14:26;21.58;87.14
13091;DHT22;6611;52.604;13.438;2023-08-12T20:19:29;21.54;87.13
13091;DHT22;6611;52.604;13.438;2023-08-12T20:24:31;21.46;87.27
13091;DHT22;6611;52.604;13.438;2023-08-12T20:29:32;21.43;87.83
13091;DHT22;6611;52.604;13.438;2023-08-12T20:34:35;21.39;87.68
13091;DHT22;6611;52.604;13.438;2023-08-12T20:39:37;21.34;87.52
13091;DHT22;6611;52.604;13.438;2023-08-12T20:44:39;21.23;87.52
13091;DHT22;6611;52.604;13.438;2023-08-12T20:49:42;21.19;87.44
13091;DHT22;6611;52.604;13.438;2023-08-12T20:54:44;21.10;87.29
13091;DHT22;6611;52.604;13.438;2023-08-12T20:59:45;20.98;87.47
13091;DHT22;6611;52.604;13.438;2023-08-12T21:04:49;20.88;87.49
13091;DHT22;6611;52.604;13.438;2023-08-12T21:09:51;20.84;87.59
13091;DHT22;6611;52.604;13.438;2023-08-12T21:14:53;20.81;87.55
13091;DHT22;6611;52.604;13.438;2023-08-12T21:19:56;20.74;87.69
13091;DHT22;6611;52.604;13.438;2023-08-12T21:24:58;20.75;87.46
13091;DHT22;6611;52.604;13.438;2023-08-12T21:30:00;20.63;87.73
13091;DHT22;6611;52.604;13.438;2023-08-12T21:35:03;20.53;87.72
13091;DHT22;6611;52.604;13.438;2023-08-12T21:40:07;20.43;87.78
13091;DHT22;6611;52.604;13.438;2023-08-12T21:45:10;20.33;87.84
13091;DHT22;6611;52.604;13.438;2023-08-12T21:50:13;20.32;88.03
13091;DHT22;6611;52.604;13.438;2023-08-12T21:55:15;20.27;88.31
13091;DHT22;6611;52.604;13.438;2023-08-12T22:00:17;20.33;88.03
13091;DHT22;6611;52.604;13.438;2023-08-12T22:05:20;20.39;87.98
13091;DHT22;6611;52.604;13.438;2023-08-12T22:10:22;20.40;88.33
13091;DHT22;6611;52.604;13.438;2023-08-12T22:15:23;20.41;88.60
13091;DHT22;6611;52.604;13.438;2023-08-12T22:20:26;20.41;88.56
13091;DHT22;6611;52.604;13.438;2023-08-12T22:25:28;20.34;88.64
13091;DHT22;6611;52.604;13.438;2023-08-12T22:30:30;20.37;88.61
13091;DHT22;6611;52.604;13.438;2023-08-12T22:35:33;20.34;88.58
13091;DHT22;6611;52.604;13.438;2023-08-12T22:40:35;20.39;88.53
13091;DHT22;6611;52.604;13.438;2023-08-12T22:45:40;20.37;88.66
13091;DHT22;6611;52.604;13.438;2023-08-12T22:50:43;20.37;88.42
13091;DHT22;6611;52.604;13.438;2023-08-12T22:55:44;20.37;88.33
13091;DHT22;6611;52.604;13.438;2023-08-12T23:00:46;20.30;88.57
13091;DHT22;6611;52.604;13.438;2023-08-12T23:05:49;20.26;88.73
13091;DHT22;6611;52.604;13.438;2023-08-12T23:10:51;20.26;88.77
13091;DHT22;6611;52.604;13.438;2023-08-12T23:15:52;20.23;88.64
13091;DHT22;6611;52.604;13.438;2023-08-12T23:20:55;20.23;88.56
13091;DHT22;6611;52.604;13.438;2023-08-12T23:25:59;20.25;88.47
13091;DHT22;6611;52.604;13.438;2023-08-12T23:31:00;20.17;89.06
13091;DHT22;6611;52.604;13.438;2023-08-12T23:36:04;20.20;89.12
13091;DHT22;6611;52.604;13.438;2023-08-12T23:41:07;20.20;89.13
13091;DHT22;6611;52.604;13.438;2023-08-12T23:46:08;20.22;88.99
13091;DHT22;6611;52.604;13.438;2023-08-12T23:51:11;20.23;88.74
13091;DHT22;6611;52.604;13.438;2023-08-12T23:56:13;20.22;88.93
